createdAt,value
2019-04-07T00:00:43.670Z,0.00
2019-04-07T00:01:43.398Z,0.00
2019-04-07T00:02:43.252Z,0.00
2019-04-07T00:03:43.692Z,0.00
2019-04-07T00:04:43.230Z,0.00
2019-04-07T00:05:43.762Z,0.00
2019-04-07T00:06:43.215Z,0.00
2019-04-07T00:07:43.598Z,0.00
2019-04-07T00:08:43.297Z,0.00
2019-04-07T00:09:43.667Z,0.00
2019-04-07T00:10:43.879Z,0.00
2019-04-07T00:11:43.177Z,0.00
2019-04-07T00:12:43.167Z,0.00
2019-04-07T00:13:43.162Z,0.00
2019-04-07T00:14:43.733Z,0.00
2019-04-07T00:15:43.324Z,0.00
2019-04-07T00:16:43.785Z,0.00
2019-04-07T00:17:43.215Z,0.00
2019-04-07T00:18:43.183Z,0.00
2019-04-07T00:19:43.555Z,0.00
2019-04-07T00:20:43.685Z,0.00
2019-04-07T00:21:43.100Z,0.00
2019-04-07T00:22:43.093Z,0.00
2019-04-07T00:23:43.089Z,0.00
2019-04-07T00:24:50.837Z,0.00
2019-04-07T00:26:36.537Z,0.00
2019-04-07T00:27:36.867Z,0.00
2019-04-07T00:28:36.768Z,0.00
2019-04-07T00:29:36.644Z,0.00
2019-04-07T00:30:36.427Z,0.00
2019-04-07T00:31:36.416Z,0.00
2019-04-07T00:32:36.410Z,0.00
2019-04-07T00:33:36.400Z,0.00
2019-04-07T00:34:36.877Z,0.00
2019-04-07T00:35:36.535Z,0.00
2019-04-07T00:36:37.818Z,0.00
2019-04-07T00:37:36.378Z,0.00
2019-04-07T00:38:36.360Z,0.00
2019-04-07T00:39:36.354Z,0.00
2019-04-07T00:40:37.038Z,0.00
2019-04-07T00:41:36.452Z,0.00
2019-04-07T00:42:36.357Z,0.00
2019-04-07T00:43:36.395Z,0.00
2019-04-07T00:44:37.026Z,0.00
2019-04-07T00:45:36.884Z,0.00
2019-04-07T00:46:36.457Z,0.00
2019-04-07T00:47:36.278Z,0.00
2019-04-07T00:48:36.446Z,0.00
2019-04-07T00:49:36.878Z,0.00
2019-04-07T00:50:36.261Z,0.00
2019-04-07T00:51:36.249Z,0.00
2019-04-07T00:52:36.239Z,0.00
2019-04-07T00:53:36.619Z,0.00
2019-04-07T00:54:36.226Z,0.00
2019-04-07T00:55:36.216Z,0.00
2019-04-07T00:56:36.309Z,0.00
2019-04-07T00:57:36.342Z,0.00
2019-04-07T00:58:36.871Z,0.00
2019-04-07T00:59:36.183Z,0.00
2019-04-07T01:00:36.631Z,0.00
2019-04-07T01:01:36.162Z,0.00
2019-04-07T01:02:36.544Z,0.00
2019-04-07T01:03:36.146Z,0.00
2019-04-07T01:04:36.461Z,0.00
2019-04-07T01:05:38.608Z,0.00
2019-04-07T01:06:36.130Z,0.00
2019-04-07T01:07:36.154Z,0.00
2019-04-07T01:08:36.144Z,0.00
2019-04-07T01:09:36.115Z,0.00
2019-04-07T01:10:36.088Z,0.00
2019-04-07T01:11:36.310Z,0.00
2019-04-07T01:12:36.068Z,0.00
2019-04-07T01:13:36.271Z,0.00
2019-04-07T01:14:36.059Z,0.00
2019-04-07T01:15:36.048Z,0.00
2019-04-07T01:16:36.257Z,0.00
2019-04-07T01:17:36.038Z,0.00
2019-04-07T01:18:36.026Z,0.00
2019-04-07T01:19:36.554Z,0.00
2019-04-07T01:20:36.012Z,0.00
2019-04-07T01:21:35.992Z,0.00
2019-04-07T01:22:36.393Z,0.00
2019-04-07T01:23:36.408Z,0.00
2019-04-07T01:24:36.414Z,0.00
2019-04-07T01:25:35.969Z,0.00
2019-04-07T01:26:35.954Z,0.00
2019-04-07T01:27:35.953Z,0.00
2019-04-07T01:28:36.316Z,0.00
2019-04-07T01:29:36.447Z,0.00
2019-04-07T01:30:35.935Z,0.00
2019-04-07T01:31:36.224Z,0.00
2019-04-07T01:32:35.910Z,0.00
2019-04-07T01:33:35.897Z,0.00
2019-04-07T01:34:36.145Z,0.00
2019-04-07T01:35:45.590Z,0.00
2019-04-07T01:36:35.889Z,0.00
2019-04-07T01:37:36.252Z,0.00
2019-04-07T01:38:35.857Z,0.00
2019-04-07T01:39:35.849Z,0.00
2019-04-07T01:40:36.504Z,0.00
2019-04-07T01:41:35.832Z,0.00
2019-04-07T01:42:35.841Z,0.00
2019-04-07T01:43:35.826Z,0.00
2019-04-07T01:44:35.817Z,0.00
2019-04-07T01:45:35.805Z,0.00
2019-04-07T01:46:35.796Z,0.00
2019-04-07T01:47:36.299Z,0.00
2019-04-07T01:48:35.777Z,0.00
2019-04-07T01:49:36.005Z,0.00
2019-04-07T01:50:36.407Z,0.00
2019-04-07T01:51:36.382Z,0.00
2019-04-07T01:52:36.450Z,0.00
2019-04-07T01:53:35.728Z,0.00
2019-04-07T01:54:36.211Z,0.00
2019-04-07T01:55:35.776Z,0.00
2019-04-07T01:56:36.260Z,0.00
2019-04-07T01:57:36.358Z,0.00
2019-04-07T01:58:35.692Z,0.00
2019-04-07T01:59:35.683Z,0.00
2019-04-07T02:00:35.672Z,0.00
2019-04-07T02:01:36.289Z,0.00
2019-04-07T02:02:35.657Z,0.00
2019-04-07T02:03:35.770Z,0.00
2019-04-07T02:04:35.860Z,0.00
2019-04-07T02:05:35.633Z,0.00
2019-04-07T02:06:36.425Z,0.00
2019-04-07T02:07:35.919Z,0.00
2019-04-07T02:08:36.258Z,0.00
2019-04-07T02:09:35.596Z,0.00
2019-04-07T02:10:36.241Z,0.00
2019-04-07T02:11:35.591Z,0.00
2019-04-07T02:12:35.577Z,0.00
2019-04-07T02:13:36.210Z,0.00
2019-04-07T02:14:35.599Z,0.00
2019-04-07T02:15:35.575Z,0.00
2019-04-07T02:16:35.644Z,0.00
2019-04-07T02:17:36.313Z,0.00
2019-04-07T02:18:35.527Z,0.00
2019-04-07T02:19:35.935Z,0.00
2019-04-07T02:20:36.089Z,0.00
2019-04-07T02:21:36.112Z,0.00
2019-04-07T02:22:35.491Z,0.00
2019-04-07T02:23:35.506Z,0.00
2019-04-07T02:24:35.658Z,0.00
2019-04-07T02:25:36.096Z,0.00
2019-04-07T02:26:35.454Z,0.00
2019-04-07T02:27:36.102Z,0.00
2019-04-07T02:28:35.774Z,0.00
2019-04-07T02:29:35.833Z,0.00
2019-04-07T02:30:35.453Z,0.00
2019-04-07T02:31:35.967Z,0.00
2019-04-07T02:32:35.635Z,0.00
2019-04-07T02:33:35.408Z,0.00
2019-04-07T02:34:36.035Z,0.00
2019-04-07T02:35:35.380Z,0.00
2019-04-07T02:36:35.752Z,0.00
2019-04-07T02:37:35.367Z,0.00
2019-04-07T02:38:35.363Z,0.00
2019-04-07T02:39:35.342Z,0.00
2019-04-07T02:40:35.363Z,0.00
2019-04-07T02:41:35.321Z,0.00
2019-04-07T02:42:35.357Z,0.00
2019-04-07T02:43:35.307Z,0.00
2019-04-07T02:44:35.299Z,0.00
2019-04-07T02:45:35.288Z,0.00
2019-04-07T02:46:36.467Z,0.00
2019-04-07T02:47:35.361Z,0.00
2019-04-07T02:48:35.278Z,0.00
2019-04-07T02:49:35.605Z,0.00
2019-04-07T02:50:35.248Z,0.00
2019-04-07T02:51:35.239Z,0.00
2019-04-07T02:52:35.693Z,0.00
2019-04-07T02:53:35.227Z,0.00
2019-04-07T02:54:36.039Z,0.00
2019-04-07T02:55:35.614Z,0.00
2019-04-07T02:56:36.075Z,0.00
2019-04-07T02:57:35.984Z,0.00
2019-04-07T02:58:35.835Z,0.00
2019-04-07T02:59:35.412Z,0.00
2019-04-07T03:00:36.314Z,0.00
2019-04-07T03:01:35.172Z,0.00
2019-04-07T03:02:35.151Z,0.00
2019-04-07T03:03:35.133Z,0.00
2019-04-07T03:04:35.316Z,0.00
2019-04-07T03:05:36.089Z,0.00
2019-04-07T03:06:44.120Z,0.00
2019-04-07T03:07:35.703Z,0.00
2019-04-07T03:08:35.663Z,0.00
2019-04-07T03:09:35.089Z,0.00
2019-04-07T03:10:35.151Z,0.00
2019-04-07T03:11:35.374Z,0.00
2019-04-07T03:12:35.408Z,0.00
2019-04-07T03:13:35.127Z,0.00
2019-04-07T03:14:35.045Z,0.00
2019-04-07T03:15:35.051Z,0.00
2019-04-07T03:16:35.533Z,0.00
2019-04-07T03:17:35.045Z,0.00
2019-04-07T03:18:35.870Z,0.00
2019-04-07T03:19:35.002Z,0.00
2019-04-07T03:20:36.042Z,0.00
2019-04-07T03:21:35.151Z,0.00
2019-04-07T03:22:34.974Z,0.00
2019-04-07T03:23:35.145Z,0.00
2019-04-07T03:24:34.989Z,0.00
2019-04-07T03:25:35.647Z,0.00
2019-04-07T03:26:34.940Z,0.00
2019-04-07T03:27:36.076Z,0.00
2019-04-07T03:28:34.924Z,0.00
2019-04-07T03:29:35.056Z,0.00
2019-04-07T03:30:37.525Z,0.00
2019-04-07T03:31:36.452Z,0.00
2019-04-07T03:32:37.399Z,0.00
2019-04-07T03:33:39.556Z,0.00
2019-04-07T03:34:36.316Z,0.00
2019-04-07T03:35:35.426Z,0.00
2019-04-07T03:37:01.503Z,0.00
2019-04-07T03:37:42.993Z,0.00
2019-04-07T03:38:35.323Z,0.00
2019-04-07T03:39:34.823Z,0.00
2019-04-07T03:40:35.556Z,0.00
2019-04-07T03:41:35.096Z,0.00
2019-04-07T03:42:34.794Z,0.00
2019-04-07T03:43:35.756Z,0.00
2019-04-07T03:44:34.793Z,0.00
2019-04-07T03:45:35.751Z,0.00
2019-04-07T03:46:34.789Z,0.00
2019-04-07T03:47:35.429Z,0.00
2019-04-07T03:48:35.335Z,0.00
2019-04-07T03:49:35.153Z,0.00
2019-04-07T03:50:34.760Z,0.00
2019-04-07T03:51:34.718Z,0.00
2019-04-07T03:52:35.442Z,0.00
2019-04-07T03:53:35.639Z,0.00
2019-04-07T03:54:35.517Z,0.00
2019-04-07T03:55:35.200Z,0.00
2019-04-07T03:56:34.672Z,0.00
2019-04-07T03:57:35.301Z,0.00
2019-04-07T03:58:34.675Z,0.00
2019-04-07T03:59:35.279Z,0.00
2019-04-07T04:00:34.639Z,0.00
2019-04-07T04:01:35.598Z,0.00
2019-04-07T04:02:34.716Z,0.00
2019-04-07T04:03:34.610Z,0.00
2019-04-07T04:04:34.617Z,0.00
2019-04-07T04:05:34.595Z,0.00
2019-04-07T04:06:35.366Z,0.00
2019-04-07T04:07:37.036Z,0.00
2019-04-07T04:08:35.042Z,0.00
2019-04-07T04:09:38.196Z,0.00
2019-04-07T04:10:34.554Z,0.00
2019-04-07T04:11:34.555Z,0.00
2019-04-07T04:12:35.581Z,0.00
2019-04-07T04:13:34.538Z,0.00
2019-04-07T04:14:34.726Z,0.00
2019-04-07T04:15:34.508Z,0.00
2019-04-07T04:16:34.497Z,0.00
2019-04-07T04:17:34.780Z,0.00
2019-04-07T04:18:35.203Z,0.00
2019-04-07T04:19:34.840Z,4.00
2019-04-07T04:20:34.768Z,4.00
2019-04-07T04:21:34.463Z,0.00
2019-04-07T04:22:34.440Z,4.00
2019-04-07T04:23:34.447Z,4.00
2019-04-07T04:24:35.049Z,4.00
2019-04-07T04:25:34.570Z,4.00
2019-04-07T04:26:34.462Z,4.00
2019-04-07T04:27:35.285Z,4.00
2019-04-07T04:28:34.753Z,4.00
2019-04-07T04:29:34.382Z,8.00
2019-04-07T04:30:34.370Z,12.00
2019-04-07T04:31:34.366Z,12.00
2019-04-07T04:32:34.353Z,16.00
2019-04-07T04:33:34.838Z,20.00
2019-04-07T04:34:34.681Z,20.00
2019-04-07T04:35:34.622Z,24.00
2019-04-07T04:36:34.332Z,28.00
2019-04-07T04:37:42.530Z,36.00
2019-04-07T04:38:34.301Z,40.00
2019-04-07T04:39:34.296Z,44.00
2019-04-07T04:40:34.320Z,52.00
2019-04-07T04:41:34.839Z,60.00
2019-04-07T04:42:35.602Z,68.00
2019-04-07T04:43:34.256Z,76.00
2019-04-07T04:44:34.250Z,88.00
2019-04-07T04:45:34.242Z,100.00
2019-04-07T04:46:34.455Z,108.00
2019-04-07T04:47:34.460Z,124.00
2019-04-07T04:48:35.125Z,132.00
2019-04-07T04:49:35.145Z,152.00
2019-04-07T04:50:35.061Z,168.00
2019-04-07T04:51:36.999Z,180.00
2019-04-07T04:52:34.171Z,204.00
2019-04-07T04:53:34.887Z,220.00
2019-04-07T04:54:34.166Z,240.00
2019-04-07T04:55:34.995Z,260.00
2019-04-07T04:56:34.262Z,284.00
2019-04-07T04:57:35.149Z,304.00
2019-04-07T04:58:34.863Z,328.00
2019-04-07T04:59:34.111Z,352.00
2019-04-07T05:00:34.150Z,380.00
2019-04-07T05:01:34.473Z,404.00
2019-04-07T05:02:34.700Z,432.00
2019-04-07T05:03:34.823Z,456.00
2019-04-07T05:04:34.159Z,488.00
2019-04-07T05:05:34.525Z,512.00
2019-04-07T05:06:34.046Z,540.00
2019-04-07T05:07:41.935Z,568.00
2019-04-07T05:08:34.030Z,592.00
2019-04-07T05:09:41.087Z,620.00
2019-04-07T05:10:34.780Z,652.00
2019-04-07T05:11:34.442Z,688.00
2019-04-07T05:12:33.995Z,724.00
2019-04-07T05:13:34.149Z,764.00
2019-04-07T05:14:34.001Z,808.00
2019-04-07T05:15:34.211Z,856.00
2019-04-07T05:16:34.447Z,908.00
2019-04-07T05:17:33.970Z,964.00
2019-04-07T05:18:33.936Z,1020.00
2019-04-07T05:19:34.352Z,1084.00
2019-04-07T05:20:34.440Z,1152.00
2019-04-07T05:21:34.042Z,1220.00
2019-04-07T05:22:33.899Z,1284.00
2019-04-07T05:23:33.890Z,1360.00
2019-04-07T05:24:35.061Z,1444.00
2019-04-07T05:25:33.875Z,1524.00
2019-04-07T05:26:34.503Z,1608.00
2019-04-07T05:27:33.858Z,1688.00
2019-04-07T05:28:36.906Z,1776.00
2019-04-07T05:29:34.047Z,1856.00
2019-04-07T05:30:33.826Z,1936.00
2019-04-07T05:31:33.822Z,1964.00
2019-04-07T05:32:33.861Z,1936.00
2019-04-07T05:33:34.510Z,1944.00
2019-04-07T05:34:34.483Z,1972.00
2019-04-07T05:35:34.160Z,2028.00
2019-04-07T05:36:33.780Z,2100.00
2019-04-07T05:37:34.128Z,2172.00
2019-04-07T05:38:34.421Z,2324.00
2019-04-07T05:39:33.753Z,2540.00
2019-04-07T05:40:34.534Z,2608.00
2019-04-07T05:41:33.785Z,2644.00
2019-04-07T05:42:34.298Z,2632.00
2019-04-07T05:43:33.890Z,2580.00
2019-04-07T05:44:34.383Z,2604.00
2019-04-07T05:45:36.426Z,2704.00
2019-04-07T05:46:33.692Z,2864.00
2019-04-07T05:47:33.941Z,3004.00
2019-04-07T05:48:33.770Z,3020.00
2019-04-07T05:49:33.663Z,3080.00
2019-04-07T05:50:33.655Z,3172.00
2019-04-07T05:51:33.871Z,3180.00
2019-04-07T05:52:39.306Z,3196.00
2019-04-07T05:53:33.629Z,3320.00
2019-04-07T05:54:34.054Z,3400.00
2019-04-07T05:55:33.670Z,3428.00
2019-04-07T05:56:33.605Z,3464.00
2019-04-07T05:57:35.544Z,3628.00
2019-04-07T05:58:37.578Z,3656.00
2019-04-07T05:59:33.581Z,3528.00
2019-04-07T06:00:33.994Z,3588.00
2019-04-07T06:01:33.563Z,3764.00
2019-04-07T06:02:34.110Z,3724.00
2019-04-07T06:03:38.025Z,3736.00
2019-04-07T06:04:33.840Z,3872.00
2019-04-07T06:05:33.534Z,3840.00
2019-04-07T06:06:34.262Z,4120.00
2019-04-07T06:07:35.653Z,4148.00
2019-04-07T06:08:37.982Z,4104.00
2019-04-07T06:09:33.955Z,4236.00
2019-04-07T06:10:33.709Z,4248.00
2019-04-07T06:11:35.471Z,4680.00
2019-04-07T06:12:33.899Z,4956.00
2019-04-07T06:13:33.468Z,4600.00
2019-04-07T06:14:33.559Z,4356.00
2019-04-07T06:15:33.560Z,4336.00
2019-04-07T06:16:33.453Z,4484.00
2019-04-07T06:17:33.437Z,4576.00
2019-04-07T06:18:34.261Z,4672.00
2019-04-07T06:19:37.500Z,4752.00
2019-04-07T06:20:33.411Z,4676.00
2019-04-07T06:21:33.412Z,4708.00
2019-04-07T06:22:33.845Z,5080.00
2019-04-07T06:23:33.395Z,5256.00
2019-04-07T06:24:34.974Z,5476.00
2019-04-07T06:25:38.202Z,5696.00
2019-04-07T06:26:34.125Z,6092.00
2019-04-07T06:27:33.644Z,6744.00
2019-04-07T06:28:33.818Z,7308.00
2019-04-07T06:29:33.467Z,7740.00
2019-04-07T06:30:35.832Z,8056.00
2019-04-07T06:31:34.027Z,7752.00
2019-04-07T06:32:36.075Z,7108.00
2019-04-07T06:33:34.705Z,6236.00
2019-04-07T06:34:33.821Z,6188.00
2019-04-07T06:35:33.618Z,6092.00
2019-04-07T06:36:34.013Z,6280.00
2019-04-07T06:37:33.281Z,6196.00
2019-04-07T06:38:35.761Z,6336.00
2019-04-07T06:39:33.993Z,6916.00
2019-04-07T06:40:33.844Z,7060.00
2019-04-07T06:41:34.266Z,5996.00
2019-04-07T06:42:34.078Z,6220.00
2019-04-07T06:43:35.150Z,7540.00
2019-04-07T06:44:33.469Z,8108.00
2019-04-07T06:45:33.358Z,7520.00
2019-04-07T06:46:33.219Z,8100.00
2019-04-07T06:47:33.560Z,8464.00
2019-04-07T06:48:33.199Z,8760.00
2019-04-07T06:49:33.768Z,8300.00
2019-04-07T06:50:43.908Z,8092.00
2019-04-07T06:51:33.488Z,8056.00
2019-04-07T06:52:38.689Z,7348.00
2019-04-07T06:53:33.802Z,7900.00
2019-04-07T06:54:33.160Z,8860.00
2019-04-07T06:55:34.105Z,8296.00
2019-04-07T06:56:34.276Z,9092.00
2019-04-07T06:57:35.037Z,9956.00
2019-04-07T06:58:33.140Z,9400.00
2019-04-07T06:59:33.134Z,8060.00
2019-04-07T07:00:33.127Z,8240.00
2019-04-07T07:01:33.893Z,9400.00
2019-04-07T07:02:33.108Z,9464.00
2019-04-07T07:03:36.058Z,9044.00
2019-04-07T07:04:33.102Z,8384.00
2019-04-07T07:05:34.963Z,9708.00
2019-04-07T07:06:33.084Z,11516.00
2019-04-07T07:07:33.546Z,10700.00
2019-04-07T07:08:42.358Z,11412.00
2019-04-07T07:09:33.404Z,12024.00
2019-04-07T07:10:37.791Z,13552.00
2019-04-07T07:11:34.676Z,14480.00
2019-04-07T07:12:38.417Z,14340.00
2019-04-07T07:13:35.435Z,12956.00
2019-04-07T07:14:42.307Z,13200.00
2019-04-07T07:15:34.532Z,12220.00
2019-04-07T07:16:33.023Z,11364.00
2019-04-07T07:17:33.176Z,11644.00
2019-04-07T07:18:33.844Z,10444.00
2019-04-07T07:19:33.014Z,9432.00
2019-04-07T07:20:33.007Z,9748.00
2019-04-07T07:21:36.466Z,10832.00
2019-04-07T07:22:33.631Z,11948.00
2019-04-07T07:23:33.214Z,12036.00
2019-04-07T07:24:33.782Z,11344.00
2019-04-07T07:25:33.284Z,11156.00
2019-04-07T07:26:35.276Z,11012.00
2019-04-07T07:27:32.967Z,11628.00
2019-04-07T07:28:33.616Z,13480.00
2019-04-07T07:29:33.718Z,16352.00
2019-04-07T07:30:32.946Z,14448.00
2019-04-07T07:31:33.543Z,13716.00
2019-04-07T07:32:36.982Z,13100.00
2019-04-07T07:33:33.441Z,12744.00
2019-04-07T07:34:33.915Z,13496.00
2019-04-07T07:35:33.415Z,17984.00
2019-04-07T07:36:32.927Z,19616.00
2019-04-07T07:37:33.358Z,15436.00
2019-04-07T07:38:33.509Z,14148.00
2019-04-07T07:39:32.909Z,18336.00
2019-04-07T07:40:34.996Z,19296.00
2019-04-07T07:41:32.924Z,20800.00
2019-04-07T07:42:32.988Z,20288.00
2019-04-07T07:43:33.691Z,19168.00
2019-04-07T07:44:36.093Z,18272.00
2019-04-07T07:45:33.023Z,13712.00
2019-04-07T07:46:33.324Z,14252.00
2019-04-07T07:47:32.877Z,14744.00
2019-04-07T07:48:32.880Z,14848.00
2019-04-07T07:49:35.181Z,15920.00
2019-04-07T07:50:34.714Z,14752.00
2019-04-07T07:51:33.704Z,17408.00
2019-04-07T07:52:33.051Z,17024.00
2019-04-07T07:53:32.971Z,15732.00
2019-04-07T07:54:33.448Z,15780.00
2019-04-07T07:55:35.973Z,15816.00
2019-04-07T07:56:32.849Z,16180.00
2019-04-07T07:57:32.862Z,18016.00
2019-04-07T07:58:34.510Z,19840.00
2019-04-07T07:59:37.656Z,19488.00
2019-04-07T08:00:34.506Z,19136.00
2019-04-07T08:01:33.202Z,21184.00
2019-04-07T08:02:33.261Z,22816.00
2019-04-07T08:03:32.818Z,21696.00
2019-04-07T08:04:33.478Z,24384.00
2019-04-07T08:05:33.443Z,23072.00
2019-04-07T08:06:32.883Z,21120.00
2019-04-07T08:07:33.571Z,20256.00
2019-04-07T08:08:33.134Z,22592.00
2019-04-07T08:09:32.946Z,22944.00
2019-04-07T08:10:33.068Z,21408.00
2019-04-07T08:11:34.430Z,17984.00
2019-04-07T08:12:34.699Z,21120.00
2019-04-07T08:13:33.736Z,24096.00
2019-04-07T08:14:32.782Z,26240.00
2019-04-07T08:15:34.283Z,28000.00
2019-04-07T08:16:33.514Z,29056.00
2019-04-07T08:17:33.906Z,28672.00
2019-04-07T08:18:36.160Z,28640.00
2019-04-07T08:19:33.001Z,28576.00
2019-04-07T08:20:32.773Z,28576.00
2019-04-07T08:21:32.766Z,29888.00
2019-04-07T08:22:39.640Z,23712.00
2019-04-07T08:23:32.764Z,21536.00
2019-04-07T08:24:32.805Z,20320.00
2019-04-07T08:25:33.538Z,20576.00
2019-04-07T08:26:33.323Z,20704.00
2019-04-07T08:27:33.148Z,32448.00
2019-04-07T08:28:35.120Z,35040.00
2019-04-07T08:29:33.424Z,34944.00
2019-04-07T08:30:32.912Z,35776.00
2019-04-07T08:31:32.755Z,36192.00
2019-04-07T08:32:33.390Z,36032.00
2019-04-07T08:33:33.215Z,36480.00
2019-04-07T08:34:33.048Z,36800.00
2019-04-07T08:35:35.688Z,37216.00
2019-04-07T08:36:32.763Z,37376.00
2019-04-07T08:37:32.754Z,38880.00
2019-04-07T08:38:33.285Z,39040.00
2019-04-07T08:39:36.013Z,38080.00
2019-04-07T08:40:32.752Z,36608.00
2019-04-07T08:41:33.450Z,37184.00
2019-04-07T08:42:32.887Z,38624.00
2019-04-07T08:43:32.999Z,38528.00
2019-04-07T08:44:32.760Z,38848.00
2019-04-07T08:45:32.877Z,38976.00
2019-04-07T08:46:39.435Z,39456.00
2019-04-07T08:47:33.384Z,40832.00
2019-04-07T08:48:33.301Z,41664.00
2019-04-07T08:49:33.623Z,41056.00
2019-04-07T08:50:33.195Z,41376.00
2019-04-07T08:51:33.629Z,41152.00
2019-04-07T08:52:33.198Z,41888.00
2019-04-07T08:53:32.944Z,41152.00
2019-04-07T08:54:32.957Z,40896.00
2019-04-07T08:55:33.446Z,41952.00
2019-04-07T08:56:32.968Z,42144.00
2019-04-07T08:57:32.764Z,42560.00
2019-04-07T08:58:36.856Z,41760.00
2019-04-07T08:59:32.772Z,41888.00
2019-04-07T09:00:33.566Z,43008.00
2019-04-07T09:01:32.793Z,44160.00
2019-04-07T09:02:32.773Z,44224.00
2019-04-07T09:03:33.181Z,44384.00
2019-04-07T09:04:32.777Z,44096.00
2019-04-07T09:05:33.504Z,44960.00
2019-04-07T09:06:33.174Z,45504.00
2019-04-07T09:07:33.475Z,45600.00
2019-04-07T09:08:34.672Z,47072.00
2019-04-07T09:09:36.288Z,47680.00
2019-04-07T09:10:34.452Z,47264.00
2019-04-07T09:11:33.539Z,47520.00
2019-04-07T09:12:32.801Z,47584.00
2019-04-07T09:13:34.171Z,47424.00
2019-04-07T09:14:32.797Z,47776.00
2019-04-07T09:15:32.914Z,48800.00
2019-04-07T09:16:33.564Z,47808.00
2019-04-07T09:17:40.086Z,47808.00
2019-04-07T09:18:33.450Z,50304.00
2019-04-07T09:19:35.009Z,51552.00
2019-04-07T09:20:32.833Z,52032.00
2019-04-07T09:21:38.806Z,51264.00
2019-04-07T09:22:32.815Z,50688.00
2019-04-07T09:23:32.867Z,52000.00
2019-04-07T09:24:33.542Z,52512.00
2019-04-07T09:25:33.177Z,51584.00
2019-04-07T09:26:33.328Z,52768.00
2019-04-07T09:27:32.825Z,53984.00
2019-04-07T09:28:33.165Z,54848.00
2019-04-07T09:29:32.841Z,53504.00
2019-04-07T09:30:32.840Z,50784.00
2019-04-07T09:31:33.253Z,51584.00
2019-04-07T09:32:33.421Z,55776.00
2019-04-07T09:33:35.667Z,56576.00
2019-04-07T09:34:33.488Z,55776.00
2019-04-07T09:35:33.374Z,58112.00
2019-04-07T09:36:33.564Z,59104.00
2019-04-07T09:37:33.420Z,58624.00
2019-04-07T09:38:33.398Z,57312.00
2019-04-07T09:39:50.729Z,57856.00
2019-04-07T09:40:32.879Z,58080.00
2019-04-07T09:41:32.885Z,58176.00
2019-04-07T09:42:33.394Z,58048.00
2019-04-07T09:43:33.503Z,57664.00
2019-04-07T09:44:36.006Z,58304.00
2019-04-07T09:45:33.403Z,59008.00
2019-04-07T09:46:32.895Z,58624.00
2019-04-07T09:47:32.930Z,58464.00
2019-04-07T09:48:33.428Z,59360.00
2019-04-07T09:49:32.911Z,58720.00
2019-04-07T09:50:32.916Z,57024.00
2019-04-07T09:51:33.136Z,57152.00
2019-04-07T09:52:32.976Z,57728.00
2019-04-07T09:53:33.641Z,58528.00
2019-04-07T09:54:32.949Z,58976.00
2019-04-07T09:55:33.246Z,60896.00
2019-04-07T09:56:33.695Z,61728.00
2019-04-07T09:57:35.466Z,63040.00
2019-04-07T09:58:33.197Z,62336.00
2019-04-07T09:59:32.954Z,61856.00
2019-04-07T10:00:33.790Z,61760.00
2019-04-07T10:01:33.100Z,61600.00
2019-04-07T10:02:35.484Z,61024.00
2019-04-07T10:03:32.975Z,61280.00
2019-04-07T10:04:32.991Z,61504.00
2019-04-07T10:05:33.031Z,60800.00
2019-04-07T10:06:32.988Z,60672.00
2019-04-07T10:07:33.441Z,61632.00
2019-04-07T10:08:33.009Z,62176.00
2019-04-07T10:09:33.561Z,61888.00
2019-04-07T10:10:33.002Z,61152.00
2019-04-07T10:11:33.831Z,60256.00
2019-04-07T10:12:33.485Z,59904.00
2019-04-07T10:13:34.062Z,60576.00
2019-04-07T10:14:33.016Z,61184.00
2019-04-07T10:15:33.674Z,62336.00
2019-04-07T10:16:35.037Z,62656.00
2019-04-07T10:17:33.048Z,61856.00
2019-04-07T10:18:34.146Z,62624.00
2019-04-07T10:19:33.061Z,62784.00
2019-04-07T10:20:33.647Z,62432.00
2019-04-07T10:21:33.065Z,61536.00
2019-04-07T10:22:33.066Z,62688.00
2019-04-07T10:23:33.058Z,64480.00
2019-04-07T10:24:33.066Z,64160.00
2019-04-07T10:25:33.248Z,62336.00
2019-04-07T10:26:33.695Z,62912.00
2019-04-07T10:27:33.908Z,63680.00
2019-04-07T10:28:33.450Z,63264.00
2019-04-07T10:29:33.142Z,62688.00
2019-04-07T10:30:33.092Z,62304.00
2019-04-07T10:31:33.744Z,62432.00
2019-04-07T10:32:33.969Z,60448.00
2019-04-07T10:33:33.572Z,61184.00
2019-04-07T10:34:33.186Z,62816.00
2019-04-07T10:35:33.534Z,62496.00
2019-04-07T10:36:33.120Z,61568.00
2019-04-07T10:37:33.537Z,60736.00
2019-04-07T10:38:33.124Z,61728.00
2019-04-07T10:39:33.715Z,63168.00
2019-04-07T10:40:33.459Z,61504.00
2019-04-07T10:41:33.137Z,62208.00
2019-04-07T10:42:33.553Z,63040.00
2019-04-07T10:43:33.791Z,65504.00
2019-04-07T10:44:34.099Z,66848.00
2019-04-07T10:45:33.897Z,64224.00
2019-04-07T10:46:33.667Z,63520.00
2019-04-07T10:47:33.575Z,64960.00
2019-04-07T10:48:33.301Z,66944.00
2019-04-07T10:49:34.091Z,64608.00
2019-04-07T10:50:33.661Z,65440.00
2019-04-07T10:51:33.180Z,66432.00
2019-04-07T10:52:33.920Z,63232.00
2019-04-07T10:53:34.277Z,64448.00
2019-04-07T10:54:33.731Z,66496.00
2019-04-07T10:55:33.195Z,67840.00
2019-04-07T10:56:33.200Z,69184.00
2019-04-07T10:57:33.411Z,67136.00
2019-04-07T10:58:33.353Z,65312.00
2019-04-07T10:59:33.212Z,68000.00
2019-04-07T11:00:33.432Z,68096.00
2019-04-07T11:01:33.418Z,67200.00
2019-04-07T11:02:33.930Z,66272.00
2019-04-07T11:03:34.074Z,66432.00
2019-04-07T11:04:34.000Z,67168.00
2019-04-07T11:05:33.255Z,67616.00
2019-04-07T11:06:33.877Z,68000.00
2019-04-07T11:07:33.836Z,67328.00
2019-04-07T11:08:33.870Z,66944.00
2019-04-07T11:09:33.258Z,67520.00
2019-04-07T11:10:37.470Z,67424.00
2019-04-07T11:11:33.285Z,65216.00
2019-04-07T11:12:33.270Z,66144.00
2019-04-07T11:13:34.203Z,63104.00
2019-04-07T11:14:33.857Z,67776.00
2019-04-07T11:15:34.036Z,65824.00
2019-04-07T11:16:33.765Z,69088.00
2019-04-07T11:17:33.818Z,68672.00
2019-04-07T11:18:33.728Z,71712.00
2019-04-07T11:19:33.425Z,71744.00
2019-04-07T11:20:33.833Z,72512.00
2019-04-07T11:21:33.821Z,67104.00
2019-04-07T11:22:36.106Z,55872.00
2019-04-07T11:23:33.314Z,63680.00
2019-04-07T11:24:33.878Z,67424.00
2019-04-07T11:25:33.655Z,50624.00
2019-04-07T11:26:33.327Z,67296.00
2019-04-07T11:27:33.326Z,68544.00
2019-04-07T11:28:33.799Z,69856.00
2019-04-07T11:29:33.708Z,75904.00
2019-04-07T11:30:33.349Z,68416.00
2019-04-07T11:31:34.108Z,70720.00
2019-04-07T11:32:33.358Z,70656.00
2019-04-07T11:33:34.093Z,66112.00
2019-04-07T11:34:33.404Z,25696.00
2019-04-07T11:35:33.364Z,22272.00
2019-04-07T11:36:35.317Z,20768.00
2019-04-07T11:37:33.365Z,17632.00
2019-04-07T11:38:34.075Z,17952.00
2019-04-07T11:39:33.394Z,21504.00
2019-04-07T11:40:43.364Z,30624.00
2019-04-07T11:41:33.387Z,22944.00
2019-04-07T11:42:33.472Z,24320.00
2019-04-07T11:43:33.400Z,22464.00
2019-04-07T11:44:33.960Z,31296.00
2019-04-07T11:45:33.497Z,53792.00
2019-04-07T11:46:34.036Z,75328.00
2019-04-07T11:47:33.969Z,69536.00
2019-04-07T11:48:33.404Z,20416.00
2019-04-07T11:49:33.404Z,19520.00
2019-04-07T11:50:34.287Z,69248.00
2019-04-07T11:51:33.414Z,38144.00
2019-04-07T11:52:34.065Z,65920.00
2019-04-07T11:53:33.418Z,41408.00
2019-04-07T11:54:33.892Z,17212.00
2019-04-07T11:55:33.491Z,43840.00
2019-04-07T11:56:34.017Z,72096.00
2019-04-07T11:57:33.496Z,70944.00
2019-04-07T11:58:34.709Z,69600.00
2019-04-07T11:59:33.444Z,70720.00
2019-04-07T12:00:33.445Z,69856.00
2019-04-07T12:01:33.848Z,68992.00
2019-04-07T12:02:33.439Z,69024.00
2019-04-07T12:03:34.259Z,68832.00
2019-04-07T12:04:34.464Z,65376.00
2019-04-07T12:05:33.440Z,65088.00
2019-04-07T12:06:34.180Z,70688.00
2019-04-07T12:07:33.455Z,70016.00
2019-04-07T12:08:36.171Z,71360.00
2019-04-07T12:09:33.692Z,70912.00
2019-04-07T12:10:34.340Z,69184.00
2019-04-07T12:11:34.384Z,71968.00
2019-04-07T12:12:34.297Z,70112.00
2019-04-07T12:13:33.461Z,71424.00
2019-04-07T12:14:33.929Z,70112.00
2019-04-07T12:15:33.563Z,71360.00
2019-04-07T12:16:33.804Z,70272.00
2019-04-07T12:17:33.989Z,70944.00
2019-04-07T12:18:34.155Z,71136.00
2019-04-07T12:19:33.480Z,70528.00
2019-04-07T12:20:34.053Z,68416.00
2019-04-07T12:21:36.937Z,71200.00
2019-04-07T12:22:33.811Z,69632.00
2019-04-07T12:23:33.716Z,69440.00